Overview Statistics Trail Chart Weather Telemetry Raw packets
 

This is the latest recevied weather packets stored in our database for station/object KE6YLF. If no packets are shown the sender has not sent any weather packets the latest 10 day(s).

<< 31 32 33 34 35 36 37 >>
Time Temp. Humidity Pressure Rain* Wind** Luminosity Snow
1788477333 37.22° C 35% 1073.1 hPa 0 mm - - -
1788477027 36.67° C 37% 1073.2 hPa 0 mm - - -
1788476724 36.67° C 37% 1073.3 hPa 0 mm - - -
1788476422 37.78° C 35% 1073.5 hPa 0 mm - - -
1788476120 38.33° C 34% 1073.4 hPa 0 mm - - -
1788475816 37.78° C 36% 1073.5 hPa 0 mm - - -
1788475512 37.22° C 36% 1073.4 hPa 0 mm - - -
1788475208 37.78° C 34% 1073.6 hPa 0 mm - - -
1788474907 37.78° C 35% 1073.5 hPa 0 mm - - -
1788474607 37.22° C 35% 1073.6 hPa 0 mm - - -
1788474302 37.78° C 35% 1073.5 hPa 0 mm - - -
1788474000 37.78° C 34% 1073.6 hPa 0 mm - - -
1788473695 36.67° C 37% 1073.7 hPa 0 mm - - -
1788473425 37.22° C 34% 1073.7 hPa 0 mm - - -
1788473087 38.33° C 33% 1073.8 hPa 0 mm - - -
1788472784 38.33° C 33% 1073.9 hPa 0 mm - - -
1788472482 37.78° C 33% 1073.9 hPa 0 mm - - -
1788472179 37.78° C 33% 1073.9 hPa 0 mm - - -
1788471876 37.78° C 33% 1074 hPa 0 mm - - -
1788471575 37.78° C 33% 1074.2 hPa 0 mm - - -
1788471271 37.78° C 34% 1074.1 hPa 0 mm - - -
1788470966 37.78° C 35% 1074.2 hPa 0 mm - - -
1788470662 37.22° C 35% 1074.3 hPa 0 mm - - -
1788470361 37.22° C 35% 1074.3 hPa 0 mm - - -
1788470057 38.33° C 35% 1074.5 hPa 0 mm - - -

* Rain latest hour (hover to see other rain measurements)
** Current wind speed in m/s (hover to see current wind gust speed)